createdAt,value
2018-05-17T00:01:04.142Z,97031
2018-05-17T00:03:42.278Z,97029
2018-05-17T00:06:10.599Z,97031
2018-05-17T00:08:41.745Z,97031
2018-05-17T00:11:12.780Z,97037
2018-05-17T00:13:43.915Z,97038
2018-05-17T00:16:14.955Z,97040
2018-05-17T00:18:45.964Z,97035
2018-05-17T00:21:15.369Z,97041
2018-05-17T00:23:48.143Z,97040
2018-05-17T00:26:22.131Z,97029
2018-05-17T00:29:02.786Z,97029
2018-05-17T00:31:39.604Z,97022
2018-05-17T00:34:11.664Z,97023
2018-05-17T00:36:39.941Z,97025
2018-05-17T00:39:13.481Z,97031
2018-05-17T00:41:46.315Z,97024
2018-05-17T00:44:18.376Z,97030
2018-05-17T00:46:53.735Z,97026
2018-05-17T00:49:27.873Z,97020
2018-05-17T00:52:06.671Z,97020
2018-05-17T00:54:42.547Z,97026
2018-05-17T00:57:21.428Z,97023
2018-05-17T00:59:53.529Z,97016
2018-05-17T01:02:28.004Z,97028
2018-05-17T01:05:02.198Z,97026
2018-05-17T01:07:33.182Z,97027
2018-05-17T01:10:01.470Z,97026
2018-05-17T01:12:29.772Z,97024
2018-05-17T01:15:05.192Z,97021
2018-05-17T01:17:41.994Z,97021
2018-05-17T01:20:13.015Z,97023
2018-05-17T01:22:45.914Z,97023
2018-05-17T01:25:18.571Z,97022
2018-05-17T01:27:56.343Z,97021
2018-05-17T01:30:28.321Z,97018
2018-05-17T01:32:58.591Z,97022
2018-05-17T01:35:39.799Z,97022
2018-05-17T01:38:26.014Z,97020
2018-05-17T01:41:15.791Z,97022
2018-05-17T01:43:45.170Z,97025
2018-05-17T01:46:15.456Z,97021
2018-05-17T01:48:47.523Z,97019
2018-05-17T01:51:17.515Z,97017
2018-05-17T01:53:49.402Z,97021
2018-05-17T01:56:18.662Z,97019
2018-05-17T01:58:57.699Z,97020
2018-05-17T02:01:30.803Z,97017
2018-05-17T02:03:59.117Z,97012
2018-05-17T02:06:40.514Z,97008
2018-05-17T02:09:19.809Z,97006
2018-05-17T02:11:51.552Z,97009
2018-05-17T02:14:19.888Z,97008
2018-05-17T02:16:49.338Z,97011
2018-05-17T02:19:27.703Z,97008
2018-05-17T02:21:56.035Z,97005
2018-05-17T02:24:24.289Z,97006
2018-05-17T02:26:56.439Z,97017
2018-05-17T02:29:24.786Z,97017
2018-05-17T02:31:58.842Z,97019
2018-05-17T02:34:28.219Z,97023
2018-05-17T02:36:56.798Z,97027
2018-05-17T02:39:25.310Z,97023
2018-05-17T02:41:58.551Z,97026
2018-05-17T02:44:34.656Z,97032
2018-05-17T02:47:08.099Z,97026
2018-05-17T02:49:45.846Z,97034
2018-05-17T02:52:20.638Z,97033
2018-05-17T02:54:56.509Z,97029
2018-05-17T02:57:36.293Z,97026
2018-05-17T03:00:08.455Z,97022
2018-05-17T03:02:41.320Z,97021
2018-05-17T03:05:13.466Z,97019
2018-05-17T03:07:44.535Z,97019
2018-05-17T03:10:19.603Z,97016
2018-05-17T03:12:49.958Z,97017
2018-05-17T03:15:20.954Z,97016
2018-05-17T03:17:50.305Z,97013
2018-05-17T03:20:24.414Z,97011
2018-05-17T03:23:01.544Z,97013
2018-05-17T03:25:31.853Z,97006
2018-05-17T03:28:07.019Z,97008
2018-05-17T03:30:43.779Z,97015
2018-05-17T03:33:16.902Z,97009
2018-05-17T03:35:48.665Z,97010
2018-05-17T03:38:16.935Z,97012
2018-05-17T03:40:45.248Z,97009
2018-05-17T03:43:17.059Z,97007
2018-05-17T03:45:46.395Z,97008
2018-05-17T03:48:15.459Z,97007
2018-05-17T03:50:44.765Z,97008
2018-05-17T03:53:23.171Z,97014
2018-05-17T03:55:52.558Z,97017
2018-05-17T03:58:24.675Z,97019
2018-05-17T04:04:20.282Z,97021
2018-05-17T04:06:54.566Z,97014
2018-05-17T04:09:27.717Z,97012
2018-05-17T04:11:58.732Z,97017
2018-05-17T04:14:35.020Z,97022
2018-05-17T04:17:03.527Z,97016
2018-05-17T04:19:35.130Z,97023
2018-05-17T04:22:04.451Z,97021
2018-05-17T04:24:35.629Z,97017
2018-05-17T04:27:16.758Z,97026
2018-05-17T04:29:45.083Z,97032
2018-05-17T04:32:37.619Z,97039
2018-05-17T04:35:11.202Z,97042
2018-05-17T04:37:43.279Z,97048
2018-05-17T04:40:18.047Z,97051
2018-05-17T04:42:51.587Z,97049
2018-05-17T04:45:25.003Z,97047
2018-05-17T04:47:54.347Z,97051
2018-05-17T04:50:23.399Z,97046
2018-05-17T04:52:56.681Z,97047
2018-05-17T04:55:28.008Z,97051
2018-05-17T04:57:57.607Z,97053
2018-05-17T05:00:27.915Z,97051
2018-05-17T05:02:56.297Z,97055
2018-05-17T05:05:30.553Z,97060
2018-05-17T05:08:05.362Z,97058
2018-05-17T05:10:39.312Z,97064
2018-05-17T05:13:13.059Z,97066
2018-05-17T05:15:52.186Z,97065
2018-05-17T05:18:39.018Z,97070
2018-05-17T05:21:11.632Z,97073
2018-05-17T05:23:40.938Z,97070
2018-05-17T05:26:11.335Z,97066
2018-05-17T05:28:58.386Z,97066
2018-05-17T05:31:34.429Z,97066
2018-05-17T05:34:03.762Z,97059
2018-05-17T05:36:38.893Z,97057
2018-05-17T05:39:13.071Z,97063
2018-05-17T05:41:44.079Z,97060
2018-05-17T05:44:14.442Z,97058
2018-05-17T05:46:49.217Z,97062
2018-05-17T05:49:18.548Z,97066
2018-05-17T05:52:01.696Z,97060
2018-05-17T05:54:38.283Z,97060
2018-05-17T05:57:15.010Z,97066
2018-05-17T05:59:45.334Z,97063
2018-05-17T06:02:27.388Z,97058
2018-05-17T06:04:58.410Z,97065
2018-05-17T06:07:28.500Z,97069
2018-05-17T06:09:56.752Z,97068
2018-05-17T06:12:25.063Z,97069
2018-05-17T06:14:55.367Z,97070
2018-05-17T06:17:23.656Z,97067
2018-05-17T06:19:58.254Z,97075
2018-05-17T06:22:26.539Z,97076
2018-05-17T06:24:54.812Z,97083
2018-05-17T06:27:23.115Z,97080
2018-05-17T06:29:51.368Z,97077
2018-05-17T06:32:21.603Z,97079
2018-05-17T06:34:50.956Z,97079
2018-05-17T06:37:21.233Z,97078
2018-05-17T06:40:12.955Z,97077
2018-05-17T06:42:45.737Z,97075
2018-05-17T06:45:21.181Z,97079
2018-05-17T06:47:50.483Z,97078
2018-05-17T06:50:22.053Z,97080
2018-05-17T06:52:51.467Z,97085
2018-05-17T06:55:20.713Z,97085
2018-05-17T06:57:55.248Z,97089
2018-05-17T07:00:24.808Z,97095
2018-05-17T07:03:01.937Z,97091
2018-05-17T07:05:48.355Z,97096
2018-05-17T07:08:26.542Z,97096
2018-05-17T07:11:09.015Z,97099
2018-05-17T07:13:38.315Z,97103
2018-05-17T07:16:08.378Z,97107
2018-05-17T07:18:42.039Z,97105
2018-05-17T07:21:19.355Z,97102
2018-05-17T07:23:51.376Z,97105
2018-05-17T07:26:22.362Z,97106
2018-05-17T07:28:59.359Z,97108
2018-05-17T07:31:35.888Z,97107
2018-05-17T07:34:04.247Z,97102
2018-05-17T07:36:40.338Z,97115
2018-05-17T07:39:09.684Z,97115
2018-05-17T07:44:42.696Z,97121
2018-05-17T07:47:21.216Z,97115
2018-05-17T07:49:53.280Z,97118
2018-05-17T07:52:25.084Z,97107
2018-05-17T07:54:53.403Z,97117
2018-05-17T07:57:26.616Z,97116
2018-05-17T07:59:55.792Z,97121
2018-05-17T08:02:34.896Z,97130
2018-05-17T08:05:04.767Z,97129
2018-05-17T08:07:58.818Z,97130
2018-05-17T08:10:27.065Z,97129
2018-05-17T08:12:57.308Z,97129
2018-05-17T08:15:31.056Z,97128
2018-05-17T08:18:07.155Z,97128
2018-05-17T08:20:40.187Z,97132
2018-05-17T08:23:15.655Z,97138
2018-05-17T08:26:01.933Z,97135
2018-05-17T08:28:30.978Z,97134
2018-05-17T08:31:29.115Z,97137
2018-05-17T08:33:57.393Z,97137
2018-05-17T08:36:39.042Z,97140
2018-05-17T08:39:11.909Z,97138
2018-05-17T08:41:54.998Z,97142
2018-05-17T08:44:23.713Z,97142
2018-05-17T08:46:52.051Z,97144
2018-05-17T08:49:27.128Z,97144
2018-05-17T08:51:57.622Z,97142
2018-05-17T08:54:32.957Z,97146
2018-05-17T08:57:11.517Z,97142
2018-05-17T08:59:44.915Z,97147
2018-05-17T09:02:18.839Z,97150
2018-05-17T09:04:47.134Z,97150
2018-05-17T09:07:15.403Z,97150
2018-05-17T09:09:47.152Z,97151
2018-05-17T09:12:29.511Z,97155
2018-05-17T09:14:57.896Z,97151
2018-05-17T09:17:33.199Z,97155
2018-05-17T09:20:16.697Z,97159
2018-05-17T09:22:44.995Z,97154
2018-05-17T09:25:19.287Z,97155
2018-05-17T09:28:01.652Z,97158
2018-05-17T09:30:38.770Z,97160
2018-05-17T09:33:12.123Z,97162
2018-05-17T09:35:44.939Z,97163
2018-05-17T09:38:23.375Z,97161
2018-05-17T09:40:53.603Z,97164
2018-05-17T09:43:21.869Z,97160
2018-05-17T09:46:00.806Z,97163
2018-05-17T09:48:29.109Z,97164
2018-05-17T09:50:57.356Z,97160
2018-05-17T09:53:29.160Z,97162
2018-05-17T09:56:08.410Z,97165
2018-05-17T09:58:43.896Z,97166
2018-05-17T10:01:15.284Z,97166
2018-05-17T10:03:44.360Z,97171
2018-05-17T10:06:17.699Z,97174
2018-05-17T10:08:46.190Z,97173
2018-05-17T10:11:14.386Z,97175
2018-05-17T10:14:01.268Z,97175
2018-05-17T10:16:33.603Z,97174
2018-05-17T10:19:13.928Z,97177
2018-05-17T10:21:42.207Z,97176
2018-05-17T10:27:16.038Z,97190
2018-05-17T10:29:46.394Z,97187
2018-05-17T10:32:17.391Z,97193
2018-05-17T10:34:49.683Z,97189
2018-05-17T10:37:19.691Z,97187
2018-05-17T10:39:54.729Z,97187
2018-05-17T10:42:24.030Z,97190
2018-05-17T10:44:53.318Z,97187
2018-05-17T10:47:35.470Z,97187
2018-05-17T10:50:12.395Z,97194
2018-05-17T10:52:46.534Z,97198
2018-05-17T10:55:25.913Z,97195
2018-05-17T10:57:56.215Z,97198
2018-05-17T11:00:26.187Z,97205
2018-05-17T11:02:55.503Z,97208
2018-05-17T11:05:29.226Z,97211
2018-05-17T11:07:59.585Z,97213
2018-05-17T11:10:31.711Z,97213
2018-05-17T11:13:13.941Z,97209
2018-05-17T11:15:47.522Z,97214
2018-05-17T11:18:16.791Z,97210
2018-05-17T11:20:51.690Z,97214
2018-05-17T11:23:20.021Z,97209
2018-05-17T11:25:54.638Z,97203
2018-05-17T11:28:37.073Z,97207
2018-05-17T11:31:07.311Z,97198
2018-05-17T11:33:37.735Z,97203
2018-05-17T11:36:08.763Z,97208
2018-05-17T11:38:37.832Z,97211
2018-05-17T11:41:09.503Z,97202
2018-05-17T11:43:41.223Z,97206
2018-05-17T11:46:09.654Z,97209
2018-05-17T11:48:40.711Z,97207
2018-05-17T11:51:12.122Z,97205
2018-05-17T11:53:54.761Z,97207
2018-05-17T11:56:31.437Z,97206
2018-05-17T11:59:04.195Z,97208
2018-05-17T12:01:49.983Z,97204
2018-05-17T12:04:22.955Z,97204
2018-05-17T12:06:52.272Z,97197
2018-05-17T12:09:21.363Z,97201
2018-05-17T12:11:52.920Z,97206
2018-05-17T12:14:21.453Z,97202
2018-05-17T12:17:03.025Z,97201
2018-05-17T12:19:34.133Z,97205
2018-05-17T12:22:05.287Z,97198
2018-05-17T12:24:44.272Z,97200
2018-05-17T12:27:13.756Z,97196
2018-05-17T12:29:45.153Z,97194
2018-05-17T12:32:16.166Z,97193
2018-05-17T12:34:44.556Z,97199
2018-05-17T12:37:13.663Z,97186
2018-05-17T12:39:46.368Z,97188
2018-05-17T12:42:15.495Z,97191
2018-05-17T12:44:50.671Z,97194
2018-05-17T12:47:19.014Z,97192
2018-05-17T12:49:49.328Z,97186
2018-05-17T12:52:18.604Z,97190
2018-05-17T12:54:48.386Z,97190
2018-05-17T12:57:17.121Z,97187
2018-05-17T12:59:52.222Z,97196
2018-05-17T13:02:22.318Z,97201
2018-05-17T13:04:52.446Z,97197
2018-05-17T13:07:23.267Z,97191
2018-05-17T13:09:52.400Z,97193
2018-05-17T13:12:20.764Z,97186
2018-05-17T13:14:53.379Z,97180
2018-05-17T13:17:22.847Z,97173
2018-05-17T13:19:53.838Z,97175
2018-05-17T13:22:23.877Z,97173
2018-05-17T13:25:00.156Z,97172
2018-05-17T13:27:35.621Z,97170
2018-05-17T13:30:10.570Z,97175
2018-05-17T13:32:40.005Z,97178
2018-05-17T13:35:16.868Z,97184
2018-05-17T13:37:51.758Z,97181
2018-05-17T13:40:25.868Z,97180
2018-05-17T13:42:55.483Z,97181
2018-05-17T13:45:28.219Z,97180
2018-05-17T13:48:01.897Z,97170
2018-05-17T13:50:34.733Z,97169
2018-05-17T13:53:03.941Z,97174
2018-05-17T13:55:37.131Z,97183
2018-05-17T13:58:05.463Z,97186
2018-05-17T14:00:34.711Z,97186
2018-05-17T14:03:02.996Z,97187
2018-05-17T14:05:44.120Z,97187
2018-05-17T14:08:12.451Z,97190
2018-05-17T14:10:41.056Z,97189
2018-05-17T14:13:13.041Z,97193
2018-05-17T14:15:41.359Z,97195
2018-05-17T14:18:13.567Z,97189
2018-05-17T14:20:52.850Z,97189
2018-05-17T14:23:21.156Z,97190
2018-05-17T14:25:56.138Z,97188
2018-05-17T14:28:24.485Z,97193
2018-05-17T14:30:54.501Z,97184
2018-05-17T14:33:31.594Z,97196
2018-05-17T14:36:05.300Z,97193
2018-05-17T14:38:39.927Z,97190
2018-05-17T14:41:13.795Z,97185
2018-05-17T14:43:53.132Z,97178
2018-05-17T14:46:21.505Z,97184
2018-05-17T14:48:55.137Z,97184
2018-05-17T14:51:27.895Z,97193
2018-05-17T14:54:07.215Z,97191
2018-05-17T14:56:35.495Z,97194
2018-05-17T14:59:11.438Z,97193
2018-05-17T15:01:39.771Z,97183
2018-05-17T15:04:08.821Z,97185
2018-05-17T15:06:39.087Z,97176
2018-05-17T15:09:08.253Z,97178
2018-05-17T15:11:41.271Z,97176
2018-05-17T15:14:16.742Z,97179
2018-05-17T15:16:55.804Z,97174
2018-05-17T15:19:36.634Z,97175
2018-05-17T15:22:05.122Z,97175
2018-05-17T15:24:41.013Z,97168
2018-05-17T15:27:15.656Z,97168
2018-05-17T15:30:02.211Z,97176
2018-05-17T15:32:30.571Z,97167
2018-05-17T15:35:06.890Z,97168
2018-05-17T15:37:54.462Z,97171
2018-05-17T15:40:31.570Z,97172
2018-05-17T15:43:03.700Z,97172
2018-05-17T15:45:34.712Z,97170
2018-05-17T15:48:08.759Z,97174
2018-05-17T15:50:38.018Z,97175
2018-05-17T15:53:11.531Z,97175
2018-05-17T15:55:45.972Z,97177
2018-05-17T15:58:19.953Z,97175
2018-05-17T16:00:52.295Z,97169
2018-05-17T16:03:25.727Z,97169
2018-05-17T16:06:18.078Z,97171
2018-05-17T16:08:58.531Z,97172
2018-05-17T16:11:38.512Z,97175
2018-05-17T16:14:16.925Z,97177
2018-05-17T16:16:54.162Z,97177
2018-05-17T16:19:26.072Z,97180
2018-05-17T16:21:59.068Z,97182
2018-05-17T16:24:31.725Z,97188
2018-05-17T16:27:07.101Z,97186
2018-05-17T16:29:39.448Z,97188
2018-05-17T16:32:14.980Z,97179
2018-05-17T16:34:45.381Z,97187
2018-05-17T16:37:13.677Z,97182
2018-05-17T16:39:49.102Z,97183
2018-05-17T16:42:23.105Z,97191
2018-05-17T16:44:56.666Z,97188
2018-05-17T16:47:33.072Z,97198
2018-05-17T16:50:15.735Z,97193
2018-05-17T16:52:58.455Z,97198
2018-05-17T16:55:46.857Z,97198
2018-05-17T16:58:17.083Z,97204
2018-05-17T17:00:50.169Z,97201
2018-05-17T17:03:23.058Z,97199
2018-05-17T17:05:52.375Z,97208
2018-05-17T17:08:20.777Z,97206
2018-05-17T17:11:08.797Z,97208
2018-05-17T17:13:40.938Z,97211
2018-05-17T17:16:10.386Z,97210
2018-05-17T17:18:43.552Z,97209
2018-05-17T17:21:13.108Z,97206
2018-05-17T17:23:48.439Z,97209
2018-05-17T17:26:24.695Z,97210
2018-05-17T17:28:55.978Z,97213
2018-05-17T17:31:31.192Z,97212
2018-05-17T17:34:06.757Z,97211
2018-05-17T17:36:36.004Z,97221
2018-05-17T17:39:17.264Z,97220
2018-05-17T17:41:50.387Z,97221
2018-05-17T17:44:19.568Z,97220
2018-05-17T17:47:03.058Z,97219
2018-05-17T17:49:32.433Z,97220
2018-05-17T17:52:10.806Z,97224
2018-05-17T17:54:39.489Z,97222
2018-05-17T17:57:09.590Z,97223
2018-05-17T17:59:59.419Z,97228
2018-05-17T18:02:33.439Z,97221
2018-05-17T18:05:08.056Z,97226
2018-05-17T18:07:40.703Z,97231
2018-05-17T18:10:11.028Z,97233
2018-05-17T18:12:54.293Z,97238
2018-05-17T18:15:36.413Z,97231
2018-05-17T18:18:06.716Z,97232
2018-05-17T18:20:35.957Z,97234
2018-05-17T18:23:14.923Z,97238
2018-05-17T18:25:44.356Z,97246
2018-05-17T18:28:20.932Z,97248
2018-05-17T18:31:04.634Z,97254
2018-05-17T18:33:38.493Z,97260
2018-05-17T18:36:16.839Z,97256
2018-05-17T18:38:53.673Z,97263
2018-05-17T18:41:36.000Z,97263
2018-05-17T18:44:31.030Z,97260
2018-05-17T18:49:49.082Z,97265
2018-05-17T18:52:25.979Z,97266
2018-05-17T18:55:02.312Z,97269
2018-05-17T18:58:02.054Z,97270
2018-05-17T19:00:33.369Z,97271
2018-05-17T19:03:23.699Z,97281
2018-05-17T19:05:58.950Z,97280
2018-05-17T19:08:45.884Z,97284
2018-05-17T19:11:24.775Z,97286
2018-05-17T19:14:06.311Z,97295
2018-05-17T19:16:52.902Z,97300
2018-05-17T19:19:23.251Z,97308
2018-05-17T19:22:02.673Z,97308
2018-05-17T19:24:57.895Z,97304
2018-05-17T19:27:29.644Z,97307
2018-05-17T19:30:02.776Z,97311
2018-05-17T19:32:32.103Z,97312
2018-05-17T19:35:01.338Z,97319
2018-05-17T19:37:29.651Z,97324
2018-05-17T19:39:59.010Z,97327
2018-05-17T19:42:34.882Z,97328
2018-05-17T19:45:05.851Z,97337
2018-05-17T19:47:35.140Z,97338
2018-05-17T19:50:10.858Z,97329
2018-05-17T19:52:43.783Z,97336
2018-05-17T19:55:12.088Z,97341
2018-05-17T19:57:46.633Z,97340
2018-05-17T20:00:14.986Z,97344
2018-05-17T20:02:45.409Z,97347
2018-05-17T20:05:14.510Z,97352
2018-05-17T20:07:47.920Z,97355
2018-05-17T20:10:16.779Z,97357
2018-05-17T20:12:45.932Z,97359
2018-05-17T20:15:18.834Z,97356
2018-05-17T20:17:52.165Z,97354
2018-05-17T20:20:25.123Z,97358
2018-05-17T20:22:56.349Z,97358
2018-05-17T20:25:25.337Z,97360
2018-05-17T20:27:55.527Z,97353
2018-05-17T20:30:32.373Z,97364
2018-05-17T20:33:18.952Z,97359
2018-05-17T20:35:51.435Z,97359
2018-05-17T20:38:21.758Z,97356
2018-05-17T20:40:51.396Z,97352
2018-05-17T20:43:19.680Z,97355
2018-05-17T20:45:50.298Z,97358
2018-05-17T20:48:18.565Z,97350
2018-05-17T20:50:48.872Z,97359
2018-05-17T20:53:17.156Z,97356
2018-05-17T20:55:46.576Z,97357
2018-05-17T20:58:17.058Z,97356
2018-05-17T21:00:46.453Z,97355
2018-05-17T21:03:28.955Z,97355
2018-05-17T21:05:59.078Z,97353
2018-05-17T21:08:28.356Z,97350
2018-05-17T21:10:58.321Z,97345
2018-05-17T21:13:26.615Z,97345
2018-05-17T21:15:59.138Z,97343
2018-05-17T21:18:29.399Z,97339
2018-05-17T21:20:58.759Z,97340
2018-05-17T21:23:34.155Z,97343
2018-05-17T21:26:07.271Z,97342
2018-05-17T21:28:35.556Z,97345
2018-05-17T21:31:06.075Z,97348
2018-05-17T21:33:37.876Z,97352
2018-05-17T21:36:10.763Z,97343
2018-05-17T21:38:44.019Z,97343
2018-05-17T21:41:13.719Z,97344
2018-05-17T21:43:48.786Z,97342
2018-05-17T21:46:18.334Z,97349
2018-05-17T21:49:05.904Z,97346
2018-05-17T21:51:37.651Z,97344
2018-05-17T21:54:06.004Z,97337
2018-05-17T21:56:48.306Z,97338
2018-05-17T21:59:20.706Z,97337
2018-05-17T22:01:54.860Z,97331
2018-05-17T22:04:26.245Z,97332
2018-05-17T22:06:59.492Z,97337
2018-05-17T22:09:48.039Z,97336
2018-05-17T22:12:21.118Z,97339
2018-05-17T22:14:50.267Z,97339
2018-05-17T22:17:20.345Z,97345
2018-05-17T22:20:00.655Z,97344
2018-05-17T22:22:40.891Z,97347
2018-05-17T22:25:15.883Z,97349
2018-05-17T22:27:49.380Z,97344
2018-05-17T22:30:23.520Z,97344
2018-05-17T22:32:52.040Z,97343
2018-05-17T22:35:20.345Z,97346
2018-05-17T22:38:03.134Z,97345
2018-05-17T22:40:38.870Z,97342
2018-05-17T22:43:08.235Z,97338
2018-05-17T22:45:45.642Z,97341
2018-05-17T22:48:21.502Z,97345
2018-05-17T22:50:51.354Z,97336
2018-05-17T22:53:19.680Z,97336
2018-05-17T22:55:49.487Z,97339
2018-05-17T22:58:34.654Z,97336
2018-05-17T23:01:04.751Z,97335
2018-05-17T23:03:33.007Z,97334
2018-05-17T23:06:11.453Z,97341
2018-05-17T23:08:46.299Z,97343
2018-05-17T23:11:16.619Z,97344
2018-05-17T23:13:47.658Z,97340
2018-05-17T23:16:20.011Z,97337
2018-05-17T23:18:49.787Z,97337
2018-05-17T23:21:22.623Z,97336
2018-05-17T23:23:55.284Z,97332
2018-05-17T23:26:24.628Z,97334
2018-05-17T23:28:56.044Z,97331
2018-05-17T23:31:27.107Z,97336
2018-05-17T23:33:55.347Z,97337
2018-05-17T23:36:23.625Z,97337
2018-05-17T23:38:53.047Z,97338
2018-05-17T23:41:43.704Z,97332
2018-05-17T23:44:16.720Z,97328
2018-05-17T23:46:45.219Z,97328
2018-05-17T23:49:20.845Z,97329
2018-05-17T23:51:49.124Z,97325
2018-05-17T23:54:17.379Z,97327
2018-05-17T23:56:56.303Z,97328
2018-05-17T23:59:25.629Z,97333
